createdAt,value
2017-05-22T00:00:34.175Z,51.50
2017-05-22T00:03:02.635Z,51.50
2017-05-22T00:05:30.952Z,51.50
2017-05-22T00:07:59.260Z,51.50
2017-05-22T00:10:27.586Z,51.50
2017-05-22T00:12:55.882Z,51.50
2017-05-22T00:15:24.185Z,51.50
2017-05-22T00:17:52.496Z,51.50
2017-05-22T00:20:20.890Z,51.50
2017-05-22T00:22:49.239Z,51.50
2017-05-22T00:25:17.768Z,51.40
2017-05-22T00:27:46.071Z,51.40
2017-05-22T00:30:14.373Z,51.50
2017-05-22T00:32:42.694Z,51.40
2017-05-22T00:35:10.975Z,51.40
2017-05-22T00:37:39.317Z,51.40
2017-05-22T00:40:07.702Z,51.40
2017-05-22T00:42:36.022Z,51.40
2017-05-22T00:45:04.319Z,51.40
2017-05-22T00:47:32.622Z,51.40
2017-05-22T00:50:01.015Z,51.40
2017-05-22T00:52:29.303Z,51.40
2017-05-22T00:54:57.600Z,51.30
2017-05-22T00:57:26.253Z,51.30
2017-05-22T00:59:54.731Z,51.30
2017-05-22T01:02:23.216Z,51.40
2017-05-22T01:04:51.585Z,51.30
2017-05-22T01:07:19.859Z,51.30
2017-05-22T01:09:48.158Z,51.30
2017-05-22T01:12:16.465Z,51.30
2017-05-22T01:14:44.802Z,51.30
2017-05-22T01:17:13.481Z,51.30
2017-05-22T01:19:41.769Z,51.30
2017-05-22T01:22:10.240Z,51.30
2017-05-22T01:24:38.557Z,51.30
2017-05-22T01:27:06.852Z,51.30
2017-05-22T01:29:35.151Z,51.30
2017-05-22T01:32:03.435Z,51.30
2017-05-22T01:34:31.728Z,51.30
2017-05-22T01:37:00.099Z,51.20
2017-05-22T01:39:28.585Z,51.20
2017-05-22T01:41:56.939Z,51.20
2017-05-22T01:44:25.245Z,51.20
2017-05-22T01:46:53.543Z,51.20
2017-05-22T01:49:21.851Z,51.20
2017-05-22T01:51:50.149Z,51.20
2017-05-22T01:54:18.438Z,51.20
2017-05-22T01:56:46.911Z,51.20
2017-05-22T01:59:15.191Z,51.20
2017-05-22T02:01:43.496Z,51.20
2017-05-22T02:04:11.830Z,51.10
2017-05-22T02:06:40.112Z,51.10
2017-05-22T02:09:08.509Z,51.20
2017-05-22T02:11:36.855Z,51.10
2017-05-22T02:14:05.254Z,51.10
2017-05-22T02:16:33.551Z,51.10
2017-05-22T02:19:02.021Z,51.10
2017-05-22T02:21:30.343Z,51.10
2017-05-22T02:23:58.778Z,51.10
2017-05-22T02:26:27.070Z,51.10
2017-05-22T02:28:55.534Z,51.10
2017-05-22T02:31:23.837Z,51.10
2017-05-22T02:33:51.369Z,51.10
2017-05-22T02:36:19.681Z,51.10
2017-05-22T02:38:47.977Z,51.10
2017-05-22T02:41:16.509Z,51.10
2017-05-22T02:43:44.815Z,51.10
2017-05-22T02:46:13.266Z,51.10
2017-05-22T02:48:41.611Z,51.60
2017-05-22T02:51:09.904Z,51.10
2017-05-22T02:53:38.200Z,51.10
2017-05-22T02:56:06.491Z,51.10
2017-05-22T02:58:34.946Z,51.10
2017-05-22T03:01:03.312Z,51.00
2017-05-22T03:03:31.621Z,51.00
2017-05-22T03:06:00.091Z,51.00
2017-05-22T03:08:28.567Z,51.00
2017-05-22T03:10:56.959Z,51.00
2017-05-22T03:13:25.316Z,51.00
2017-05-22T03:15:53.698Z,51.00
2017-05-22T03:18:22.000Z,51.00
2017-05-22T03:20:50.353Z,51.00
2017-05-22T03:23:18.838Z,51.00
2017-05-22T03:25:47.144Z,51.00
2017-05-22T03:28:15.439Z,51.00
2017-05-22T03:30:43.746Z,51.00
2017-05-22T03:33:12.152Z,50.90
2017-05-22T03:35:40.448Z,50.90
2017-05-22T03:38:08.747Z,50.90
2017-05-22T03:40:37.027Z,50.90
2017-05-22T03:43:05.335Z,50.90
2017-05-22T03:45:33.620Z,50.90
2017-05-22T03:48:01.929Z,50.90
2017-05-22T03:50:30.212Z,50.90
2017-05-22T03:52:58.588Z,50.90
2017-05-22T03:55:26.880Z,50.90
2017-05-22T03:57:55.533Z,50.90
2017-05-22T04:00:23.872Z,50.90
2017-05-22T04:02:52.166Z,50.90
2017-05-22T04:05:20.484Z,50.90
2017-05-22T04:07:48.830Z,50.90
2017-05-22T04:10:17.315Z,50.90
2017-05-22T04:12:45.623Z,50.90
2017-05-22T04:15:13.937Z,51.10
2017-05-22T04:17:42.223Z,50.90
2017-05-22T04:20:10.515Z,50.90
2017-05-22T04:22:38.901Z,50.90
2017-05-22T04:25:07.379Z,50.90
2017-05-22T04:27:35.861Z,50.90
2017-05-22T04:30:04.152Z,50.90
2017-05-22T04:32:32.623Z,50.90
2017-05-22T04:35:00.929Z,50.90
2017-05-22T04:37:29.578Z,50.40
2017-05-22T04:39:57.944Z,50.90
2017-05-22T04:42:26.246Z,50.80
2017-05-22T04:44:54.558Z,50.80
2017-05-22T04:47:22.830Z,50.90
2017-05-22T04:49:51.138Z,50.90
2017-05-22T04:52:19.578Z,50.90
2017-05-22T04:54:47.889Z,50.90
2017-05-22T04:57:16.293Z,50.90
2017-05-22T04:59:44.669Z,50.80
2017-05-22T05:02:13.003Z,50.90
2017-05-22T05:04:41.331Z,50.90
2017-05-22T05:07:09.631Z,50.80
2017-05-22T05:09:38.196Z,50.90
2017-05-22T05:12:06.491Z,50.80
2017-05-22T05:14:34.797Z,50.80
2017-05-22T05:17:03.212Z,50.80
2017-05-22T05:19:31.496Z,50.80
2017-05-22T05:21:59.799Z,50.80
2017-05-22T05:24:27.328Z,50.80
2017-05-22T05:26:55.632Z,50.80
2017-05-22T05:29:24.015Z,50.80
2017-05-22T05:31:52.327Z,50.80
2017-05-22T05:34:20.615Z,50.80
2017-05-22T05:36:49.028Z,50.80
2017-05-22T05:39:17.362Z,50.80
2017-05-22T05:41:45.657Z,50.80
2017-05-22T05:44:14.066Z,50.80
2017-05-22T05:46:42.380Z,50.80
2017-05-22T05:49:10.688Z,50.80
2017-05-22T05:51:38.973Z,50.80
2017-05-22T05:54:07.267Z,50.80
2017-05-22T05:56:35.837Z,50.90
2017-05-22T05:59:04.140Z,50.90
2017-05-22T06:01:32.419Z,50.90
2017-05-22T06:04:00.747Z,50.90
2017-05-22T06:06:29.042Z,51.00
2017-05-22T06:08:57.362Z,51.00
2017-05-22T06:11:25.679Z,51.10
2017-05-22T06:13:53.968Z,51.20
2017-05-22T06:16:22.710Z,51.20
2017-05-22T06:18:51.016Z,51.30
2017-05-22T06:21:19.333Z,51.30
2017-05-22T06:23:47.631Z,51.50
2017-05-22T06:26:16.189Z,51.50
2017-05-22T06:28:44.487Z,51.70
2017-05-22T06:31:12.788Z,51.70
2017-05-22T06:33:41.091Z,51.40
2017-05-22T06:36:09.497Z,51.40
2017-05-22T06:38:37.789Z,51.30
2017-05-22T06:41:06.469Z,51.20
2017-05-22T06:43:34.754Z,51.50
2017-05-22T06:46:03.041Z,51.40
2017-05-22T06:48:31.351Z,51.50
2017-05-22T06:50:59.656Z,51.40
2017-05-22T06:53:27.971Z,51.50
2017-05-22T06:55:56.260Z,51.50
2017-05-22T06:58:24.774Z,51.70
2017-05-22T07:00:53.062Z,51.80
2017-05-22T07:03:21.356Z,51.90
2017-05-22T07:05:49.669Z,52.00
2017-05-22T07:08:17.999Z,52.00
2017-05-22T07:10:46.321Z,52.10
2017-05-22T07:13:14.628Z,52.10
2017-05-22T07:15:42.924Z,52.10
2017-05-22T07:18:11.213Z,52.10
2017-05-22T07:20:39.588Z,52.30
2017-05-22T07:23:07.973Z,52.50
2017-05-22T07:25:36.581Z,52.30
2017-05-22T07:28:04.871Z,52.30
2017-05-22T07:30:33.190Z,52.10
2017-05-22T07:33:01.492Z,52.20
2017-05-22T07:35:29.784Z,52.20
2017-05-22T07:37:58.088Z,52.20
2017-05-22T07:40:26.377Z,52.20
2017-05-22T07:42:54.799Z,52.10
2017-05-22T07:45:23.093Z,52.10
2017-05-22T07:47:51.406Z,51.60
2017-05-22T07:50:19.695Z,52.10
2017-05-22T07:52:47.990Z,52.10
2017-05-22T07:55:16.282Z,52.40
2017-05-22T07:57:44.847Z,52.30
2017-05-22T08:00:13.149Z,52.30
2017-05-22T08:02:41.452Z,52.40
2017-05-22T08:05:09.757Z,52.30
2017-05-22T08:07:38.035Z,52.40
2017-05-22T08:10:06.428Z,52.50
2017-05-22T08:12:34.728Z,52.30
2017-05-22T08:15:03.027Z,52.50
2017-05-22T08:17:31.471Z,52.40
2017-05-22T08:19:59.954Z,52.50
2017-05-22T08:22:28.281Z,52.60
2017-05-22T08:24:56.704Z,52.60
2017-05-22T08:27:25.018Z,52.40
2017-05-22T08:29:53.467Z,52.80
2017-05-22T08:32:21.771Z,52.70
2017-05-22T08:34:50.086Z,52.70
2017-05-22T08:37:18.700Z,52.50
2017-05-22T08:39:46.998Z,52.50
2017-05-22T08:42:15.318Z,52.40
2017-05-22T08:44:43.641Z,52.60
2017-05-22T08:47:11.936Z,52.40
2017-05-22T08:49:40.245Z,52.40
2017-05-22T08:52:08.556Z,52.20
2017-05-22T08:54:36.881Z,52.30
2017-05-22T08:57:05.185Z,52.40
2017-05-22T08:59:33.799Z,52.30
2017-05-22T09:02:02.089Z,52.30
2017-05-22T09:04:30.377Z,52.30
2017-05-22T09:06:58.688Z,52.30
2017-05-22T09:09:26.980Z,52.40
2017-05-22T09:11:55.393Z,52.10
2017-05-22T09:14:23.712Z,52.90
2017-05-22T09:16:52.057Z,52.10
2017-05-22T09:19:20.425Z,52.30
2017-05-22T09:21:48.912Z,52.10
2017-05-22T09:24:17.204Z,52.00
2017-05-22T09:26:45.850Z,52.80
2017-05-22T09:29:14.141Z,52.10
2017-05-22T09:31:42.505Z,52.10
2017-05-22T09:34:10.817Z,52.00
2017-05-22T09:36:39.117Z,52.10
2017-05-22T09:39:07.421Z,51.90
2017-05-22T09:41:35.719Z,51.80
2017-05-22T09:44:04.042Z,51.80
2017-05-22T09:46:32.342Z,51.80
2017-05-22T09:49:00.956Z,51.70
2017-05-22T09:51:29.249Z,51.70
2017-05-22T09:53:57.557Z,51.70
2017-05-22T09:56:25.860Z,51.70
2017-05-22T09:58:54.152Z,51.60
2017-05-22T10:01:22.452Z,51.70
2017-05-22T10:03:50.796Z,51.70
2017-05-22T10:06:19.213Z,51.70
2017-05-22T10:08:47.526Z,51.60
2017-05-22T10:11:15.849Z,51.70
2017-05-22T10:13:44.164Z,51.80
2017-05-22T10:16:12.463Z,51.90
2017-05-22T10:18:40.761Z,51.80
2017-05-22T10:21:09.354Z,51.70
2017-05-22T10:23:37.657Z,51.70
2017-05-22T10:26:06.140Z,51.80
2017-05-22T10:28:34.443Z,51.60
2017-05-22T10:31:02.749Z,51.80
2017-05-22T10:33:31.062Z,51.70
2017-05-22T10:35:59.647Z,51.70
2017-05-22T10:38:27.953Z,51.70
2017-05-22T10:40:56.251Z,52.00
2017-05-22T10:43:24.778Z,51.70
2017-05-22T10:45:53.177Z,51.60
2017-05-22T10:48:21.485Z,51.60
2017-05-22T10:50:49.839Z,51.70
2017-05-22T10:53:18.171Z,51.60
2017-05-22T10:55:46.471Z,51.60
2017-05-22T10:58:14.780Z,51.60
2017-05-22T11:00:43.126Z,51.70
2017-05-22T11:03:11.700Z,51.80
2017-05-22T11:05:40.021Z,51.80
2017-05-22T11:08:08.460Z,51.80
2017-05-22T11:10:36.778Z,51.80
2017-05-22T11:13:05.084Z,51.80
2017-05-22T11:15:33.474Z,51.80
2017-05-22T11:18:02.440Z,51.90
2017-05-22T11:20:30.753Z,51.90
2017-05-22T11:22:59.061Z,51.90
2017-05-22T11:25:27.406Z,52.00
2017-05-22T11:27:55.887Z,51.90
2017-05-22T11:30:24.264Z,52.00
2017-05-22T11:32:52.649Z,51.90
2017-05-22T11:35:20.953Z,52.00
2017-05-22T11:37:49.257Z,52.00
2017-05-22T11:40:17.577Z,52.00
2017-05-22T11:42:45.924Z,52.00
2017-05-22T11:45:14.249Z,52.00
2017-05-22T11:47:42.565Z,52.00
2017-05-22T11:50:11.514Z,51.90
2017-05-22T11:52:39.799Z,51.60
2017-05-22T11:55:08.100Z,51.60
2017-05-22T11:57:36.424Z,51.60
2017-05-22T12:00:04.740Z,51.80
2017-05-22T12:02:33.042Z,51.60
2017-05-22T12:05:01.355Z,51.60
2017-05-22T12:07:29.777Z,51.60
2017-05-22T12:09:58.093Z,51.50
2017-05-22T12:12:26.418Z,51.50
2017-05-22T12:14:54.974Z,51.50
2017-05-22T12:17:23.302Z,51.80
2017-05-22T12:19:51.598Z,51.80
2017-05-22T12:22:20.033Z,51.60
2017-05-22T12:24:47.553Z,51.60
2017-05-22T12:27:15.854Z,51.70
2017-05-22T12:29:44.166Z,51.80
2017-05-22T12:32:12.706Z,51.80
2017-05-22T12:34:41.001Z,51.90
2017-05-22T12:37:09.462Z,52.00
2017-05-22T12:39:37.773Z,52.00
2017-05-22T12:42:06.055Z,52.00
2017-05-22T12:44:34.495Z,52.00
2017-05-22T12:47:02.946Z,51.90
2017-05-22T12:49:31.258Z,51.90
2017-05-22T12:51:59.554Z,52.00
2017-05-22T12:54:27.876Z,52.00
2017-05-22T12:56:56.163Z,52.10
2017-05-22T12:59:24.570Z,52.00
2017-05-22T13:01:53.082Z,52.00
2017-05-22T13:04:21.592Z,52.00
2017-05-22T13:06:49.883Z,52.10
2017-05-22T13:09:18.169Z,52.00
2017-05-22T13:11:46.476Z,52.10
2017-05-22T13:14:14.770Z,52.30
2017-05-22T13:16:43.086Z,52.20
2017-05-22T13:19:11.377Z,52.00
2017-05-22T13:21:40.117Z,52.10
2017-05-22T13:24:08.450Z,52.10
2017-05-22T13:26:36.776Z,52.00
2017-05-22T13:29:05.062Z,52.00
2017-05-22T13:31:33.360Z,52.00
2017-05-22T13:34:01.775Z,52.00
2017-05-22T13:36:30.140Z,52.00
2017-05-22T13:38:58.457Z,52.10
2017-05-22T13:41:26.775Z,52.20
2017-05-22T13:43:55.080Z,52.10
2017-05-22T13:46:23.643Z,52.20
2017-05-22T13:48:52.116Z,52.20
2017-05-22T13:51:20.427Z,52.20
2017-05-22T13:53:48.941Z,52.30
2017-05-22T13:56:17.282Z,52.30
2017-05-22T13:58:45.856Z,52.10
2017-05-22T14:01:14.340Z,52.10
2017-05-22T14:03:41.978Z,52.10
2017-05-22T14:06:10.384Z,52.30
2017-05-22T14:08:38.760Z,52.30
2017-05-22T14:11:07.225Z,52.30
2017-05-22T14:13:35.533Z,52.30
2017-05-22T14:16:03.989Z,52.10
2017-05-22T14:18:32.465Z,52.20
2017-05-22T14:21:01.151Z,52.20
2017-05-22T14:23:29.459Z,52.20
2017-05-22T14:25:57.749Z,52.30
2017-05-22T14:28:26.191Z,52.10
2017-05-22T14:30:54.488Z,52.60
2017-05-22T14:33:22.039Z,52.10
2017-05-22T14:35:50.800Z,52.20
2017-05-22T14:38:19.098Z,52.20
2017-05-22T14:40:47.398Z,52.00
2017-05-22T14:43:15.704Z,52.20
2017-05-22T14:45:44.000Z,52.10
2017-05-22T14:48:12.307Z,52.10
2017-05-22T14:50:40.701Z,52.70
2017-05-22T14:53:09.346Z,52.30
2017-05-22T14:55:37.651Z,52.20
2017-05-22T14:58:05.959Z,52.00
2017-05-22T15:00:35.204Z,52.00
2017-05-22T15:03:03.489Z,52.10
2017-05-22T15:05:31.960Z,52.00
2017-05-22T15:08:00.745Z,52.10
2017-05-22T15:10:29.047Z,52.10
2017-05-22T15:12:57.333Z,52.20
2017-05-22T15:15:26.100Z,52.20
2017-05-22T15:17:54.572Z,52.30
2017-05-22T15:20:22.858Z,52.20
2017-05-22T15:22:51.327Z,52.10
2017-05-22T15:25:19.666Z,52.20
2017-05-22T15:27:47.962Z,52.30
2017-05-22T15:30:16.563Z,52.50
2017-05-22T15:32:44.907Z,52.20
2017-05-22T15:35:13.309Z,52.40
2017-05-22T15:37:41.801Z,52.30
2017-05-22T15:40:10.084Z,52.40
2017-05-22T15:42:38.397Z,52.30
2017-05-22T15:45:06.711Z,52.20
2017-05-22T15:47:35.246Z,52.20
2017-05-22T15:50:03.540Z,52.30
2017-05-22T15:52:31.833Z,52.30
2017-05-22T15:55:00.144Z,52.30
2017-05-22T15:57:28.503Z,52.50
2017-05-22T15:59:56.825Z,52.50
2017-05-22T16:02:25.120Z,52.40
2017-05-22T16:04:53.648Z,52.20
2017-05-22T16:07:22.134Z,52.30
2017-05-22T16:09:50.453Z,52.30
2017-05-22T16:12:18.761Z,52.30
2017-05-22T16:14:47.367Z,52.20
2017-05-22T16:17:15.690Z,52.20
2017-05-22T16:19:44.007Z,52.20
2017-05-22T16:22:12.453Z,52.20
2017-05-22T16:24:40.782Z,52.20
2017-05-22T16:27:09.154Z,52.40
2017-05-22T16:29:37.470Z,52.30
2017-05-22T16:32:05.805Z,52.20
2017-05-22T16:34:34.157Z,52.20
2017-05-22T16:37:02.492Z,52.30
2017-05-22T16:39:30.964Z,52.30
2017-05-22T16:41:59.273Z,52.30
2017-05-22T16:44:27.934Z,52.30
2017-05-22T16:46:56.240Z,52.20
2017-05-22T16:49:24.728Z,52.30
2017-05-22T16:51:53.408Z,52.20
2017-05-22T16:54:21.714Z,52.40
2017-05-22T16:56:50.011Z,52.30
2017-05-22T16:59:18.808Z,52.30
2017-05-22T17:01:47.516Z,52.30
2017-05-22T17:04:15.045Z,52.30
2017-05-22T17:06:43.439Z,52.70
2017-05-22T17:09:12.121Z,52.60
2017-05-22T17:11:39.668Z,52.60
2017-05-22T17:14:08.042Z,52.80
2017-05-22T17:16:36.734Z,52.90
2017-05-22T17:19:05.023Z,52.50
2017-05-22T17:21:33.334Z,52.60
2017-05-22T17:24:01.978Z,52.40
2017-05-22T17:26:30.356Z,52.70
2017-05-22T17:28:58.739Z,52.80
2017-05-22T17:31:27.334Z,53.20
2017-05-22T17:33:55.708Z,53.20
2017-05-22T17:36:24.022Z,53.20
2017-05-22T17:38:52.661Z,53.20
2017-05-22T17:41:20.982Z,53.20
2017-05-22T17:43:49.291Z,53.30
2017-05-22T17:46:18.083Z,53.30
2017-05-22T17:48:46.799Z,53.30
2017-05-22T17:51:15.099Z,53.20
2017-05-22T17:53:43.750Z,53.10
2017-05-22T17:56:12.806Z,53.10
2017-05-22T17:58:41.127Z,52.90
2017-05-22T18:01:08.997Z,52.90
2017-05-22T18:03:37.297Z,52.90
2017-05-22T18:06:05.586Z,52.90
2017-05-22T18:08:34.236Z,52.80
2017-05-22T18:11:01.782Z,52.80
2017-05-22T18:13:30.074Z,52.70
2017-05-22T18:15:58.629Z,52.80
2017-05-22T18:18:26.920Z,52.70
2017-05-22T18:20:55.237Z,52.70
2017-05-22T18:23:23.877Z,52.70
2017-05-22T18:25:52.171Z,52.70
2017-05-22T18:28:20.481Z,52.70
2017-05-22T18:30:49.115Z,52.70
2017-05-22T18:33:17.418Z,52.70
2017-05-22T18:35:45.706Z,52.60
2017-05-22T18:38:14.366Z,52.60
2017-05-22T18:40:42.669Z,52.60
2017-05-22T18:43:10.976Z,52.70
2017-05-22T18:45:39.597Z,52.70
2017-05-22T18:48:07.985Z,52.70
2017-05-22T18:50:36.290Z,52.60
2017-05-22T18:53:04.880Z,52.70
2017-05-22T18:55:33.179Z,52.70
2017-05-22T18:58:01.937Z,52.70
2017-05-22T19:00:30.877Z,52.70
2017-05-22T19:02:59.184Z,52.70
2017-05-22T19:05:27.475Z,53.00
2017-05-22T19:07:56.126Z,52.80
2017-05-22T19:10:24.445Z,52.80
2017-05-22T19:12:52.752Z,52.70
2017-05-22T19:15:21.360Z,52.70
2017-05-22T19:17:49.777Z,52.70
2017-05-22T19:20:18.219Z,52.70
2017-05-22T19:22:46.817Z,52.70
2017-05-22T19:25:15.119Z,52.70
2017-05-22T19:27:43.429Z,52.80
2017-05-22T19:30:11.975Z,52.80
2017-05-22T19:32:40.272Z,52.80
2017-05-22T19:35:08.626Z,52.70
2017-05-22T19:37:37.272Z,52.70
2017-05-22T19:40:05.565Z,52.70
2017-05-22T19:42:33.870Z,52.80
2017-05-22T19:45:02.493Z,53.00
2017-05-22T19:47:30.803Z,52.90
2017-05-22T19:49:59.121Z,53.00
2017-05-22T19:52:27.772Z,53.00
2017-05-22T19:54:56.099Z,52.90
2017-05-22T19:57:24.392Z,52.90
2017-05-22T19:59:52.998Z,53.00
2017-05-22T20:02:21.360Z,52.90
2017-05-22T20:04:49.695Z,52.80
2017-05-22T20:07:18.229Z,52.80
2017-05-22T20:09:46.528Z,52.80
2017-05-22T20:12:14.829Z,52.70
2017-05-22T20:14:43.450Z,52.70
2017-05-22T20:17:11.754Z,52.60
2017-05-22T20:19:40.085Z,52.70
2017-05-22T20:22:08.705Z,52.70
2017-05-22T20:24:37.194Z,52.70
2017-05-22T20:27:05.481Z,52.70
2017-05-22T20:29:34.159Z,52.60
2017-05-22T20:32:02.487Z,52.60
2017-05-22T20:34:30.905Z,52.50
2017-05-22T20:36:59.580Z,52.50
2017-05-22T20:39:27.893Z,52.60
2017-05-22T20:41:56.202Z,52.60
2017-05-22T20:44:24.736Z,52.60
2017-05-22T20:46:53.053Z,52.60
2017-05-22T20:49:21.342Z,52.60
2017-05-22T20:51:50.065Z,52.60
2017-05-22T20:54:18.360Z,52.50
2017-05-22T20:56:46.811Z,52.50
2017-05-22T20:59:15.713Z,52.60
2017-05-22T21:01:44.053Z,52.60
2017-05-22T21:04:12.366Z,52.50
2017-05-22T21:06:40.925Z,52.50
2017-05-22T21:09:09.225Z,52.70
2017-05-22T21:11:37.717Z,52.60
2017-05-22T21:14:06.375Z,52.70
2017-05-22T21:16:34.678Z,52.70
2017-05-22T21:19:03.141Z,52.60
2017-05-22T21:21:31.825Z,52.70
2017-05-22T21:24:00.313Z,52.80
2017-05-22T21:26:28.648Z,52.70
2017-05-22T21:28:57.268Z,52.70
2017-05-22T21:31:25.573Z,52.80
2017-05-22T21:33:53.868Z,52.80
2017-05-22T21:36:22.484Z,52.90
2017-05-22T21:38:50.795Z,52.80
2017-05-22T21:41:19.098Z,52.80
2017-05-22T21:43:47.753Z,52.80
2017-05-22T21:46:16.129Z,52.80
2017-05-22T21:48:44.424Z,52.80
2017-05-22T21:51:12.978Z,52.80
2017-05-22T21:53:41.294Z,52.80
2017-05-22T21:56:09.595Z,52.80
2017-05-22T21:58:38.244Z,52.80
2017-05-22T22:01:06.582Z,52.80
2017-05-22T22:03:35.179Z,52.80
2017-05-22T22:06:03.866Z,52.80
2017-05-22T22:08:32.193Z,52.80
2017-05-22T22:11:00.496Z,52.90
2017-05-22T22:13:28.996Z,52.80
2017-05-22T22:15:57.277Z,52.80
2017-05-22T22:18:25.655Z,52.70
2017-05-22T22:20:54.336Z,52.80
2017-05-22T22:23:22.651Z,52.80
2017-05-22T22:25:50.976Z,53.00
2017-05-22T22:28:19.572Z,52.70
2017-05-22T22:30:47.856Z,52.80
2017-05-22T22:33:16.150Z,52.70
2017-05-22T22:35:44.000Z,52.70
2017-05-22T22:38:12.292Z,52.80
2017-05-22T22:40:40.577Z,52.80
2017-05-22T22:43:09.228Z,52.90
2017-05-22T22:45:37.518Z,52.80
2017-05-22T22:48:05.802Z,52.70
2017-05-22T22:50:34.463Z,52.70
2017-05-22T22:53:02.753Z,52.70
2017-05-22T22:55:31.244Z,52.80
2017-05-22T22:57:59.920Z,52.80
2017-05-22T23:00:28.392Z,52.80
2017-05-22T23:02:56.879Z,52.80
2017-05-22T23:05:25.416Z,52.80
2017-05-22T23:07:53.850Z,52.80
2017-05-22T23:10:22.143Z,52.80
2017-05-22T23:12:50.785Z,52.80
2017-05-22T23:15:19.066Z,52.80
2017-05-22T23:17:47.344Z,52.80
2017-05-22T23:20:16.027Z,52.80
2017-05-22T23:22:44.300Z,52.80
2017-05-22T23:25:12.578Z,52.90
2017-05-22T23:27:41.290Z,52.90
2017-05-22T23:30:09.594Z,52.80
2017-05-22T23:32:38.024Z,52.80
2017-05-22T23:35:06.540Z,52.80
2017-05-22T23:37:34.841Z,53.50
2017-05-22T23:40:03.123Z,52.90
2017-05-22T23:42:31.735Z,52.90
2017-05-22T23:45:00.031Z,52.90
2017-05-22T23:47:28.380Z,52.80
2017-05-22T23:49:56.972Z,52.90
2017-05-22T23:52:25.256Z,53.00
2017-05-22T23:54:53.563Z,53.20
2017-05-22T23:57:22.219Z,52.90
2017-05-22T23:59:50.625Z,52.90
